Monroe County (BMG)

 

Airport Diagram
Current Weather/Forecast (IFR Conditions)
METAR KBMG 251553Z 06008KT 5SM -RA BR OVC007 01/M01 A2992 RMK AO2 UPB01E39RAB44FZRAE01 CIG 006V010 SLP137 P0001 I1000 T00061011
TAF KBMG 251125Z 2512/2612 08006KT 4SM BR VCSH OVC004 FM251400 08009KT 3SM -FZRA BR OVC006 FM251600 07010KT 3SM -SHRA BR OVC007 FM252100 09011G22KT 4SM BR VCSH OVC006 FM260300 09008KT P6SM VCSH OVC004 AMD LTD TO CLD VIS AND WIND TIL 251400

Airport Information

All Charts
General
Chart Name View
AIRPORT DIAGRAM
AIRPORT DIAGRAM
TAKEOFF MINIMUMS
ALTERNATE MINIMUMS
TAKEOFF MINIMUMS
ALTERNATE MINIMUMS
LAHSO
LAHSO

Approaches
Chart Name Download
ILS OR LOC/DME RWY 35
RNAV (GPS) RWY 06
RNAV (GPS) RWY 17
RNAV (GPS) RWY 24
RNAV (GPS) RWY 35
VOR/DME RWY 06
VOR RWY 17
ILS OR LOC/DME RWY 35
RNAV (GPS) RWY 06
RNAV (GPS) RWY 17
RNAV (GPS) RWY 24
RNAV (GPS) RWY 35
VOR/DME RWY 06
VOR RWY 17


Airport Statistics
Departures Arrivals Local
All Collected Stats since June 2016: 74 100 8
2021 Stats: 1 0 0
January Stats: 1 0 0

Inbound Traffic (Arrivals) - 0

No inbound traffic.


Outbound Traffic (Departures) - 0

No outbound traffic.


Local Traffic (Pattern) - 0

No local traffic.